createdAt,value
2017-05-14T00:02:19.655Z,12.50
2017-05-14T00:04:48.627Z,12.50
2017-05-14T00:07:17.738Z,12.50
2017-05-14T00:09:47.003Z,12.50
2017-05-14T00:12:15.968Z,12.50
2017-05-14T00:14:45.016Z,12.50
2017-05-14T00:17:14.009Z,12.40
2017-05-14T00:19:42.985Z,12.30
2017-05-14T00:22:13.071Z,12.30
2017-05-14T00:24:42.037Z,12.20
2017-05-14T00:27:11.034Z,12.20
2017-05-14T00:29:40.344Z,12.20
2017-05-14T00:32:09.304Z,12.30
2017-05-14T00:34:38.454Z,12.20
2017-05-14T00:37:07.533Z,12.20
2017-05-14T00:39:36.501Z,12.10
2017-05-14T00:42:05.822Z,12.10
2017-05-14T00:44:34.799Z,12.10
2017-05-14T00:47:03.728Z,12.20
2017-05-14T00:49:33.437Z,12.10
2017-05-14T00:52:03.065Z,12.10
2017-05-14T00:54:32.344Z,12.00
2017-05-14T00:57:02.082Z,11.80
2017-05-14T00:59:31.071Z,11.90
2017-05-14T01:02:00.069Z,11.80
2017-05-14T01:04:29.038Z,11.90
2017-05-14T01:06:58.289Z,11.90
2017-05-14T01:09:27.262Z,11.80
2017-05-14T01:11:56.235Z,11.80
2017-05-14T01:14:25.589Z,11.80
2017-05-14T01:16:54.545Z,11.80
2017-05-14T01:19:23.528Z,11.90
2017-05-14T01:21:52.523Z,12.00
2017-05-14T01:24:21.494Z,12.10
2017-05-14T01:26:50.830Z,12.10
2017-05-14T01:29:19.804Z,12.20
2017-05-14T01:31:48.788Z,12.20
2017-05-14T01:34:17.776Z,12.20
2017-05-14T01:36:46.750Z,12.30
2017-05-14T01:39:15.990Z,12.30
2017-05-14T01:41:44.947Z,12.30
2017-05-14T01:44:13.901Z,12.30
2017-05-14T01:46:43.884Z,12.30
2017-05-14T01:49:12.860Z,12.50
2017-05-14T01:51:41.831Z,12.50
2017-05-14T01:54:10.816Z,12.60
2017-05-14T01:56:39.781Z,12.80
2017-05-14T01:59:09.873Z,12.80
2017-05-14T02:01:38.844Z,13.00
2017-05-14T02:04:07.810Z,13.10
2017-05-14T02:06:36.788Z,13.20
2017-05-14T02:09:05.831Z,13.20
2017-05-14T02:11:35.132Z,13.30
2017-05-14T02:14:04.116Z,13.30
2017-05-14T02:16:33.069Z,13.30
2017-05-14T02:19:02.357Z,13.30
2017-05-14T02:21:31.348Z,13.30
2017-05-14T02:24:00.314Z,13.30
2017-05-14T02:26:29.605Z,13.30
2017-05-14T02:28:58.561Z,13.30
2017-05-14T02:31:27.524Z,13.20
2017-05-14T02:33:56.769Z,13.20
2017-05-14T02:36:25.749Z,13.20
2017-05-14T02:38:54.707Z,13.20
2017-05-14T02:41:23.996Z,13.20
2017-05-14T02:43:52.967Z,13.30
2017-05-14T02:46:22.682Z,13.20
2017-05-14T02:48:52.747Z,13.30
2017-05-14T02:51:21.715Z,13.30
2017-05-14T02:53:50.694Z,13.30
2017-05-14T02:56:19.668Z,13.30
2017-05-14T02:58:49.408Z,13.30
2017-05-14T03:01:18.764Z,13.20
2017-05-14T03:03:47.736Z,13.20
2017-05-14T03:06:16.684Z,13.20
2017-05-14T03:08:45.686Z,13.20
2017-05-14T03:11:14.648Z,13.20
2017-05-14T03:13:44.633Z,13.20
2017-05-14T03:16:14.360Z,13.10
2017-05-14T03:18:44.456Z,13.10
2017-05-14T03:21:13.431Z,13.10
2017-05-14T03:23:42.404Z,13.10
2017-05-14T03:26:11.686Z,13.10
2017-05-14T03:28:40.651Z,13.20
2017-05-14T03:31:10.359Z,13.10
2017-05-14T03:33:40.445Z,13.20
2017-05-14T03:36:09.424Z,13.20
2017-05-14T03:38:38.388Z,13.30
2017-05-14T03:41:07.279Z,13.30
2017-05-14T03:43:36.305Z,13.30
2017-05-14T03:46:05.718Z,13.30
2017-05-14T03:48:34.673Z,13.30
2017-05-14T03:51:03.649Z,13.30
2017-05-14T03:53:32.919Z,13.40
2017-05-14T03:56:02.680Z,13.40
2017-05-14T03:58:31.649Z,13.40
2017-05-14T04:01:01.033Z,13.40
2017-05-14T04:03:30.028Z,13.40
2017-05-14T04:05:58.996Z,13.40
2017-05-14T04:08:28.324Z,13.40
2017-05-14T04:10:57.308Z,13.40
2017-05-14T04:13:26.288Z,13.30
2017-05-14T04:15:55.280Z,13.30
2017-05-14T04:18:24.237Z,13.20
2017-05-14T04:20:53.542Z,13.20
2017-05-14T04:23:22.523Z,13.20
2017-05-14T04:25:51.481Z,13.30
2017-05-14T04:28:20.592Z,13.30
2017-05-14T04:30:49.541Z,13.30
2017-05-14T04:33:18.891Z,13.30
2017-05-14T04:35:47.863Z,13.30
2017-05-14T04:38:16.814Z,13.40
2017-05-14T04:40:46.179Z,13.30
2017-05-14T04:43:15.147Z,13.40
2017-05-14T04:45:44.120Z,13.40
2017-05-14T04:48:13.111Z,13.40
2017-05-14T04:50:42.066Z,13.40
2017-05-14T04:53:12.056Z,13.40
2017-05-14T04:55:40.271Z,13.30
2017-05-14T04:58:09.245Z,13.30
2017-05-14T05:00:39.329Z,13.30
2017-05-14T05:03:08.303Z,13.30
2017-05-14T05:05:37.268Z,13.30
2017-05-14T05:08:06.253Z,13.30
2017-05-14T05:10:35.134Z,13.30
2017-05-14T05:13:04.518Z,13.30
2017-05-14T05:15:34.232Z,13.20
2017-05-14T05:18:04.319Z,13.20
2017-05-14T05:20:33.342Z,13.30
2017-05-14T05:23:03.055Z,13.60
2017-05-14T05:25:32.033Z,13.90
2017-05-14T05:28:01.662Z,14.10
2017-05-14T05:30:31.016Z,14.30
2017-05-14T05:33:00.034Z,14.30
2017-05-14T05:35:29.721Z,14.40
2017-05-14T05:37:58.682Z,14.40
2017-05-14T05:40:27.637Z,14.50
2017-05-14T05:42:57.703Z,14.40
2017-05-14T05:45:26.671Z,14.60
2017-05-14T05:47:55.657Z,14.70
2017-05-14T05:50:24.736Z,15.00
2017-05-14T05:52:53.733Z,15.20
2017-05-14T05:55:23.060Z,15.40
2017-05-14T05:57:52.020Z,15.40
2017-05-14T06:00:20.990Z,15.50
2017-05-14T06:02:50.722Z,15.50
2017-05-14T06:05:19.753Z,15.50
2017-05-14T06:07:49.059Z,15.40
2017-05-14T06:10:17.973Z,15.20
2017-05-14T06:12:47.682Z,15.10
2017-05-14T06:15:17.754Z,14.90
2017-05-14T06:17:46.721Z,14.90
2017-05-14T06:20:15.717Z,14.90
2017-05-14T06:22:44.739Z,14.90
2017-05-14T06:25:13.700Z,14.90
2017-05-14T06:27:43.025Z,15.00
2017-05-14T06:30:11.995Z,15.10
2017-05-14T06:32:40.993Z,15.10
2017-05-14T06:35:10.311Z,15.10
2017-05-14T06:37:39.230Z,15.20
2017-05-14T06:40:08.956Z,15.20
2017-05-14T06:42:37.933Z,15.30
2017-05-14T06:45:07.663Z,15.40
2017-05-14T06:47:36.913Z,15.40
2017-05-14T06:50:05.904Z,15.40
2017-05-14T06:52:34.868Z,15.30
2017-05-14T06:55:03.862Z,15.40
2017-05-14T06:57:32.835Z,15.50
2017-05-14T07:00:02.167Z,15.70
2017-05-14T07:02:31.131Z,15.90
2017-05-14T07:05:00.093Z,16.20
2017-05-14T07:07:29.078Z,16.30
2017-05-14T07:09:58.773Z,16.40
2017-05-14T07:12:28.510Z,16.40
2017-05-14T07:14:57.469Z,16.50
2017-05-14T07:17:26.790Z,16.50
2017-05-14T07:19:56.504Z,16.60
2017-05-14T07:22:25.478Z,16.70
2017-05-14T07:24:54.842Z,16.80
2017-05-14T07:27:23.785Z,16.90
2017-05-14T07:29:52.741Z,17.10
2017-05-14T07:32:22.135Z,17.20
2017-05-14T07:34:51.052Z,17.30
2017-05-14T07:37:20.803Z,17.20
2017-05-14T07:39:49.773Z,17.10
2017-05-14T07:42:18.783Z,17.00
2017-05-14T07:44:47.846Z,17.00
2017-05-14T07:47:16.806Z,17.00
2017-05-14T07:49:46.071Z,17.00
2017-05-14T07:52:15.039Z,17.00
2017-05-14T07:54:44.005Z,17.10
2017-05-14T07:57:13.751Z,17.20
2017-05-14T07:59:42.739Z,17.30
2017-05-14T08:02:12.069Z,17.50
2017-05-14T08:04:41.055Z,17.50
2017-05-14T08:07:09.977Z,17.60
2017-05-14T08:09:39.351Z,17.60
2017-05-14T08:12:08.306Z,17.50
2017-05-14T08:14:37.269Z,17.40
2017-05-14T08:17:06.262Z,17.40
2017-05-14T08:19:36.030Z,17.40
2017-05-14T08:22:05.226Z,17.40
2017-05-14T08:24:34.203Z,17.30
2017-05-14T08:27:03.187Z,17.30
2017-05-14T08:29:32.436Z,17.30
2017-05-14T08:32:02.145Z,17.30
2017-05-14T08:34:32.266Z,17.40
2017-05-14T08:37:01.978Z,17.40
2017-05-14T08:39:31.705Z,17.60
2017-05-14T08:42:00.996Z,17.70
2017-05-14T08:44:29.998Z,17.80
2017-05-14T08:46:58.888Z,18.00
2017-05-14T08:49:27.949Z,18.10
2017-05-14T08:51:58.237Z,18.20
2017-05-14T08:54:27.244Z,18.30
2017-05-14T08:56:56.333Z,18.40
2017-05-14T08:59:25.297Z,18.50
2017-05-14T09:01:54.255Z,18.50
2017-05-14T09:04:23.602Z,18.50
2017-05-14T09:06:52.579Z,18.50
2017-05-14T09:09:21.522Z,18.70
2017-05-14T09:11:51.261Z,18.80
2017-05-14T09:14:20.232Z,18.80
2017-05-14T09:16:50.223Z,18.80
2017-05-14T09:19:19.257Z,18.90
2017-05-14T09:21:48.226Z,19.00
2017-05-14T09:24:17.246Z,19.20
2017-05-14T09:26:46.223Z,19.30
2017-05-14T09:29:15.490Z,19.30
2017-05-14T09:31:44.499Z,19.30
2017-05-14T09:34:14.231Z,19.30
2017-05-14T09:36:43.220Z,19.50
2017-05-14T09:39:12.197Z,19.70
2017-05-14T09:41:41.461Z,20.00
2017-05-14T09:44:10.438Z,20.20
2017-05-14T09:46:39.411Z,20.20
2017-05-14T09:49:08.720Z,20.30
2017-05-14T09:51:37.691Z,20.40
2017-05-14T09:54:07.496Z,20.70
2017-05-14T09:56:36.806Z,21.10
2017-05-14T09:59:05.772Z,21.60
2017-05-14T10:01:34.756Z,21.90
2017-05-14T10:04:03.739Z,22.10
2017-05-14T10:06:33.440Z,22.30
2017-05-14T10:09:02.747Z,22.30
2017-05-14T10:11:31.726Z,22.10
2017-05-14T10:14:01.449Z,21.70
2017-05-14T10:16:30.433Z,21.40
2017-05-14T10:19:00.127Z,21.10
2017-05-14T10:21:29.433Z,20.90
2017-05-14T10:23:59.169Z,20.70
2017-05-14T10:26:28.122Z,20.50
2017-05-14T10:28:57.414Z,20.50
2017-05-14T10:31:26.383Z,20.50
2017-05-14T10:33:55.327Z,20.40
2017-05-14T10:36:24.631Z,20.40
2017-05-14T10:38:53.603Z,20.50
2017-05-14T10:41:23.317Z,20.60
2017-05-14T10:43:53.053Z,20.80
2017-05-14T10:46:22.202Z,21.00
2017-05-14T10:48:51.178Z,21.10
2017-05-14T10:51:20.174Z,21.20
2017-05-14T10:53:49.189Z,21.20
2017-05-14T10:56:18.912Z,21.20
2017-05-14T10:58:48.183Z,21.20
2017-05-14T11:01:17.145Z,21.40
2017-05-14T11:03:46.116Z,21.60
2017-05-14T11:06:15.140Z,21.80
2017-05-14T11:08:44.095Z,22.00
2017-05-14T11:11:13.412Z,22.50
2017-05-14T11:13:42.398Z,23.20
2017-05-14T11:16:11.396Z,23.50
2017-05-14T11:18:40.380Z,23.90
2017-05-14T11:21:09.365Z,24.20
2017-05-14T11:23:38.695Z,24.40
2017-05-14T11:26:07.644Z,24.10
2017-05-14T11:28:36.629Z,23.70
2017-05-14T11:31:05.986Z,23.40
2017-05-14T11:33:35.010Z,23.50
2017-05-14T11:36:03.980Z,23.60
2017-05-14T11:38:33.706Z,23.90
2017-05-14T11:41:02.701Z,24.40
2017-05-14T11:43:32.034Z,24.80
2017-05-14T11:46:01.035Z,25.20
2017-05-14T11:48:30.006Z,25.30
2017-05-14T11:50:59.282Z,25.50
2017-05-14T11:53:28.247Z,25.60
2017-05-14T11:55:57.956Z,25.70
2017-05-14T11:58:27.970Z,26.00
2017-05-14T12:00:57.706Z,26.40
2017-05-14T12:03:26.669Z,26.80
2017-05-14T12:05:56.386Z,26.40
2017-05-14T12:08:26.089Z,25.80
2017-05-14T12:10:55.827Z,25.70
2017-05-14T12:13:24.784Z,25.70
2017-05-14T12:15:54.871Z,25.50
2017-05-14T12:18:23.821Z,25.50
2017-05-14T12:20:52.787Z,25.50
2017-05-14T12:23:22.521Z,25.60
2017-05-14T12:25:51.491Z,25.50
2017-05-14T12:28:21.468Z,25.40
2017-05-14T12:30:50.433Z,25.20
2017-05-14T12:33:19.405Z,25.00
2017-05-14T12:35:48.752Z,24.80
2017-05-14T12:38:17.728Z,25.20
2017-05-14T12:40:46.713Z,26.20
2017-05-14T12:43:15.688Z,26.90
2017-05-14T12:45:44.632Z,27.50
2017-05-14T12:48:14.368Z,27.40
2017-05-14T12:50:43.329Z,27.30
2017-05-14T12:53:12.606Z,27.00
2017-05-14T12:55:41.523Z,27.00
2017-05-14T12:58:11.234Z,27.40
2017-05-14T13:00:41.311Z,28.00
2017-05-14T13:03:10.277Z,28.40
2017-05-14T13:05:39.265Z,28.40
2017-05-14T13:08:08.237Z,28.00
2017-05-14T13:10:37.939Z,27.70
2017-05-14T13:13:07.950Z,27.50
2017-05-14T13:15:37.674Z,27.60
2017-05-14T13:18:06.689Z,28.10
2017-05-14T13:20:36.137Z,28.30
2017-05-14T13:23:05.123Z,28.20
2017-05-14T13:25:34.080Z,27.70
2017-05-14T13:28:03.082Z,27.00
2017-05-14T13:30:32.036Z,26.60
2017-05-14T13:33:01.002Z,26.20
2017-05-14T13:35:30.745Z,26.20
2017-05-14T13:38:00.063Z,26.70
2017-05-14T13:40:29.026Z,27.60
2017-05-14T13:42:57.999Z,28.00
2017-05-14T13:45:27.997Z,27.50
2017-05-14T13:47:56.973Z,26.70
2017-05-14T13:50:26.145Z,25.90
2017-05-14T13:52:55.120Z,25.30
2017-05-14T13:55:24.124Z,24.70
2017-05-14T13:57:53.457Z,24.40
2017-05-14T14:00:22.421Z,24.00
2017-05-14T14:02:51.391Z,23.70
2017-05-14T14:05:20.729Z,23.30
2017-05-14T14:07:49.724Z,23.00
2017-05-14T14:10:18.705Z,22.50
2017-05-14T14:12:47.662Z,22.10
2017-05-14T14:15:16.611Z,21.70
2017-05-14T14:17:45.879Z,21.40
2017-05-14T14:20:14.847Z,21.20
2017-05-14T14:22:43.828Z,20.90
2017-05-14T14:25:13.070Z,20.80
2017-05-14T14:27:42.034Z,20.70
2017-05-14T14:30:10.994Z,20.60
2017-05-14T14:32:40.037Z,20.40
2017-05-14T14:35:08.896Z,20.30
2017-05-14T14:37:37.898Z,20.10
2017-05-14T14:40:06.870Z,20.00
2017-05-14T14:42:35.858Z,19.80
2017-05-14T14:45:04.843Z,19.70
2017-05-14T14:47:34.183Z,19.60
2017-05-14T14:50:03.175Z,19.50
2017-05-14T14:52:32.160Z,19.40
2017-05-14T14:55:01.130Z,19.30
2017-05-14T14:57:30.124Z,19.40
2017-05-14T14:59:59.116Z,19.40
2017-05-14T15:02:28.083Z,19.50
2017-05-14T15:04:57.436Z,19.60
2017-05-14T15:07:26.407Z,19.60
2017-05-14T15:09:55.354Z,19.80
2017-05-14T15:12:24.710Z,19.80
2017-05-14T15:14:53.698Z,20.00
2017-05-14T15:17:22.653Z,20.40
2017-05-14T15:19:51.644Z,21.00
2017-05-14T15:22:20.607Z,21.50
2017-05-14T15:24:50.651Z,21.50
2017-05-14T15:27:19.650Z,21.50
2017-05-14T15:29:48.645Z,21.50
2017-05-14T15:32:17.969Z,21.70
2017-05-14T15:34:46.921Z,22.50
2017-05-14T15:37:15.887Z,23.40
2017-05-14T15:39:45.959Z,24.20
2017-05-14T15:42:14.929Z,24.90
2017-05-14T15:44:43.889Z,25.20
2017-05-14T15:47:13.019Z,25.30
2017-05-14T15:49:41.986Z,25.50
2017-05-14T15:52:10.983Z,25.60
2017-05-14T15:54:39.964Z,25.00
2017-05-14T15:57:09.684Z,24.40
2017-05-14T15:59:38.649Z,24.00
2017-05-14T16:02:08.908Z,23.90
2017-05-14T16:04:37.871Z,23.90
2017-05-14T16:07:07.575Z,23.80
2017-05-14T16:09:37.590Z,23.50
2017-05-14T16:12:06.542Z,23.20
2017-05-14T16:14:35.501Z,23.10
2017-05-14T16:17:04.702Z,23.30
2017-05-14T16:19:33.687Z,23.40
2017-05-14T16:22:02.722Z,23.50
2017-05-14T16:24:31.706Z,23.30
2017-05-14T16:27:00.662Z,23.00
2017-05-14T16:29:30.043Z,23.20
2017-05-14T16:31:59.012Z,23.20
2017-05-14T16:34:28.687Z,23.30
2017-05-14T16:36:58.896Z,23.20
2017-05-14T16:39:27.870Z,23.00
2017-05-14T16:41:57.104Z,22.80
2017-05-14T16:44:26.058Z,22.70
2017-05-14T16:46:55.025Z,22.50
2017-05-14T16:49:24.045Z,22.30
2017-05-14T16:51:53.032Z,22.10
2017-05-14T16:54:22.252Z,21.80
2017-05-14T16:56:51.225Z,21.60
2017-05-14T16:59:20.199Z,21.30
2017-05-14T17:01:49.543Z,21.00
2017-05-14T17:04:18.513Z,20.70
2017-05-14T17:06:47.475Z,20.40
2017-05-14T17:09:16.478Z,20.20
2017-05-14T17:11:45.452Z,20.00
2017-05-14T17:14:14.802Z,19.90
2017-05-14T17:16:43.783Z,19.80
2017-05-14T17:19:12.755Z,19.70
2017-05-14T17:21:41.732Z,19.60
2017-05-14T17:24:10.700Z,19.50
2017-05-14T17:26:40.767Z,19.40
2017-05-14T17:29:09.738Z,19.30
2017-05-14T17:31:38.697Z,19.30
2017-05-14T17:34:08.417Z,19.20
2017-05-14T17:36:37.366Z,19.20
2017-05-14T17:39:06.591Z,19.20
2017-05-14T17:41:36.278Z,19.10
2017-05-14T17:44:05.272Z,19.00
2017-05-14T17:46:34.535Z,18.90
2017-05-14T17:49:03.507Z,18.80
2017-05-14T17:51:32.463Z,18.70
2017-05-14T17:54:02.217Z,18.60
2017-05-14T17:56:31.179Z,18.40
2017-05-14T17:59:00.183Z,18.30
2017-05-14T18:01:29.132Z,18.20
2017-05-14T18:03:59.115Z,18.00
2017-05-14T18:06:28.092Z,17.80
2017-05-14T18:08:57.073Z,17.70
2017-05-14T18:11:26.404Z,17.60
2017-05-14T18:13:55.281Z,17.40
2017-05-14T18:16:24.282Z,17.40
2017-05-14T18:18:53.272Z,17.30
2017-05-14T18:21:22.254Z,17.20
2017-05-14T18:23:51.198Z,17.10
2017-05-14T18:26:20.906Z,17.00
2017-05-14T18:28:50.674Z,17.00
2017-05-14T18:31:19.668Z,16.90
2017-05-14T18:33:48.968Z,16.90
2017-05-14T18:36:17.949Z,16.80
2017-05-14T18:38:46.984Z,16.80
2017-05-14T18:41:17.071Z,16.70
2017-05-14T18:43:46.053Z,16.70
2017-05-14T18:46:15.083Z,16.60
2017-05-14T18:48:44.853Z,16.50
2017-05-14T18:51:13.873Z,16.50
2017-05-14T18:53:42.865Z,16.50
2017-05-14T18:56:11.890Z,16.40
2017-05-14T18:58:41.149Z,16.30
2017-05-14T19:01:10.184Z,16.30
2017-05-14T19:03:39.199Z,16.20
2017-05-14T19:06:08.536Z,16.20
2017-05-14T19:08:37.566Z,16.20
2017-05-14T19:11:06.570Z,16.20
2017-05-14T19:13:35.598Z,16.20
2017-05-14T19:16:04.610Z,16.20
2017-05-14T19:18:34.394Z,16.20
2017-05-14T19:21:03.395Z,16.20
2017-05-14T19:23:32.384Z,16.20
2017-05-14T19:26:01.403Z,16.10
2017-05-14T19:28:31.493Z,16.10
2017-05-14T19:31:00.517Z,16.10
2017-05-14T19:33:30.251Z,16.10
2017-05-14T19:35:59.590Z,16.00
2017-05-14T19:38:28.610Z,16.00
2017-05-14T19:40:58.341Z,15.90
2017-05-14T19:43:27.398Z,15.80
2017-05-14T19:45:56.404Z,15.80
2017-05-14T19:48:25.437Z,15.70
2017-05-14T19:50:54.439Z,15.70
2017-05-14T19:53:23.495Z,15.60
2017-05-14T19:55:52.493Z,15.50
2017-05-14T19:58:21.744Z,15.40
2017-05-14T20:00:50.771Z,15.40
2017-05-14T20:03:19.770Z,15.40
2017-05-14T20:05:49.193Z,15.40
2017-05-14T20:08:18.199Z,15.40
2017-05-14T20:10:47.256Z,15.30
2017-05-14T20:13:16.305Z,15.30
2017-05-14T20:15:45.302Z,15.30
2017-05-14T20:18:14.647Z,15.20
2017-05-14T20:20:43.706Z,15.20
2017-05-14T20:23:26.803Z,15.20
2017-05-14T20:25:55.721Z,15.10
2017-05-14T20:28:25.476Z,15.00
2017-05-14T20:30:54.523Z,15.00
2017-05-14T20:33:24.279Z,15.00
2017-05-14T20:35:53.558Z,15.00
2017-05-14T20:38:22.569Z,15.00
2017-05-14T20:40:51.546Z,15.00
2017-05-14T20:43:20.913Z,14.90
2017-05-14T20:45:50.647Z,14.90
2017-05-14T20:48:19.634Z,14.80
2017-05-14T20:50:48.883Z,14.80
2017-05-14T20:53:17.838Z,14.80
2017-05-14T20:55:46.831Z,14.80
2017-05-14T20:58:16.052Z,14.80
2017-05-14T21:00:44.954Z,14.70
2017-05-14T21:03:14.726Z,14.70
2017-05-14T21:05:44.074Z,14.70
2017-05-14T21:08:13.032Z,14.70
2017-05-14T21:10:42.032Z,14.60
2017-05-14T21:13:11.060Z,14.60
2017-05-14T21:15:40.787Z,14.60
2017-05-14T21:18:10.148Z,14.60
2017-05-14T21:20:39.142Z,14.50
2017-05-14T21:23:08.113Z,14.50
2017-05-14T21:25:37.422Z,14.60
2017-05-14T21:28:06.453Z,14.50
2017-05-14T21:30:36.166Z,14.50
2017-05-14T21:33:05.140Z,14.50
2017-05-14T21:35:34.848Z,14.50
2017-05-14T21:38:04.832Z,14.40
2017-05-14T21:40:33.791Z,14.50
2017-05-14T21:43:02.763Z,14.50
2017-05-14T21:45:31.765Z,14.50
2017-05-14T21:48:00.753Z,14.50
2017-05-14T21:50:29.759Z,14.50
2017-05-14T21:52:58.737Z,14.50
2017-05-14T21:55:27.971Z,14.50
2017-05-14T21:57:56.955Z,14.40
2017-05-14T22:00:25.920Z,14.50
2017-05-14T22:02:55.257Z,14.50
2017-05-14T22:05:24.173Z,14.50
2017-05-14T22:07:53.913Z,14.40
2017-05-14T22:10:22.928Z,14.40
2017-05-14T22:12:51.897Z,14.40
2017-05-14T22:15:21.135Z,14.40
2017-05-14T22:17:50.131Z,14.40
2017-05-14T22:20:19.042Z,14.40
2017-05-14T22:22:48.053Z,14.40
2017-05-14T22:25:17.012Z,14.30
2017-05-14T22:27:46.013Z,14.30
2017-05-14T22:30:15.032Z,14.30
2017-05-14T22:32:44.033Z,14.30
2017-05-14T22:35:12.999Z,14.20
2017-05-14T22:37:42.717Z,14.10
2017-05-14T22:40:11.751Z,14.10
2017-05-14T22:42:40.772Z,14.10
2017-05-14T22:45:10.486Z,14.00
2017-05-14T22:47:40.227Z,13.90
2017-05-14T22:50:09.178Z,13.90
2017-05-14T22:52:39.287Z,13.80
2017-05-14T22:55:08.271Z,13.80
2017-05-14T22:57:37.270Z,13.80
2017-05-14T23:00:06.508Z,13.70
2017-05-14T23:02:35.507Z,13.70
2017-05-14T23:05:04.507Z,13.60
2017-05-14T23:07:33.866Z,13.60
2017-05-14T23:10:03.615Z,13.60
2017-05-14T23:12:32.606Z,13.60
2017-05-14T23:15:01.866Z,13.60
2017-05-14T23:17:30.887Z,13.50
2017-05-14T23:19:59.872Z,13.60
2017-05-14T23:22:29.102Z,13.50
2017-05-14T23:24:58.285Z,13.50
2017-05-14T23:27:27.247Z,13.50
2017-05-14T23:29:56.498Z,13.50
2017-05-14T23:32:25.481Z,13.50
2017-05-14T23:34:54.470Z,13.50
2017-05-14T23:37:23.608Z,13.50
2017-05-14T23:39:52.606Z,13.50
2017-05-14T23:42:22.366Z,13.40
2017-05-14T23:44:51.396Z,13.30
2017-05-14T23:47:20.262Z,13.30
2017-05-14T23:49:50.044Z,13.20
2017-05-14T23:52:19.018Z,13.30
2017-05-14T23:54:48.016Z,13.30
2017-05-14T23:57:16.981Z,13.40
2017-05-14T23:59:45.969Z,13.40
